Terminal Aerodrome Forecast
Issued by NWS

Home | Current Version | Previous Version | Text Only | Print | Product List | Glossary On
Versions: 1 2 3 4 5 6 7 8 9 10 11 12 13 14 15 16
736
FTUS43 KEAX 191700
TAFMKC
TAF
KMKC 191735Z 1918/2018 05010KT P6SM SCT040 BKN250
     FM200000 07013KT P6SM OVC040
     FM200500 06012KT P6SM -RA OVC030
     FM200800 05013KT 6SM -RA OVC015
     FM201100 06011KT 4SM -RA BR OVC007=

USA.gov is the U.S. government's official web portal to all federal, state and local government web resources and services.